Aérodrome :
LOGIN :

S'inscrire | Disclaimer

   EN    FR    IT 

 










Légende :    VFR   VFR Marginal   IFR   IFR Intensif   IFR Très Intensif
Visi : 
Plafond : 
>= 8 km
>= 3000ft
5 à 8 km
1000 à 3000 ft
1500m à 5 km
500 à 1000 ft
800 à 1500m
200 à 500 ft
< 800m
< 200 ft
Symboles :   Orages  Brouillard  Fortes neiges  Fortes précipitations  Vent > 20 kt
SIGMETs :   Divers  Orages  Givrage  Turbulence  Onde Orograph.  Cendres Volcan.







- Altitude de l'aérodrome : 1411 ft
- Code IATA : GVA


LSGG - Genève Cointrin

DERNIER METAR :
  • 221420Z VRB03KT 9999 FEW035 03/M05 Q1006 NOSIG

METARs EXPIRÉS :
  • 221350Z VRB02KT 9999 FEW035 03/M04 Q1006 NOSIG
  • 221320Z VRB02KT 9999 FEW027 03/M04 Q1007 NOSIG
  • 221250Z 07004KT 010V110 9999 SCT027 03/M04 Q1007 NOSIG
  • 221220Z 28004KT 250V310 9999 BKN027 02/M04 Q1008 NOSIG
  • 221150Z VRB02KT 9999 BKN025 02/M05 Q1009 NOSIG

TAF TAF LSGG
Valide du 22 à 15h jusqu'au 23 à 21h UTC


221425Z 2215/2321 VRB03KT 9999 FEW035 TX03/2215Z TNM02/2305Z TX01/2315Z
PROB40
TEMPO 2300/2303 3000 -SN OVC014
TEMPO 2311/2315 1500 SN VV010
ATIS : +41 22 417 40 81
Pas de NOTAMs connus pour ce terrain.



MET'MAP, la Météo Aéronautique d'un coup d'oeil ! - Copyright ORBIFLY Décembre 2007 - Disclaimer

ORBIFLY MET'MAP TEAM :

Programmation & Développement : Alexandra Zaïnal
Conception & Développement : Baudouin d'Aumeries
Co-Programmation & Développement : Marc-Olivier Méhu
Soutien technique & logistique : Manuel Goepfert

Contact : metmap@orbifly.com




SOURCES & CREDITS :

   NOAA